• Join FlightAware (Why Join?)
  • Login
  • US Flag 
07:42PM EDT


 

Airport Tracker/Info


-or-


 

Live Flight TrackerFlight Track Log ✈ WBR2634 ✈ 12-Jul-2013 ✈ KBRL - KORD

Flight Track Log - Related Links

Times and Time Zones

All times are in EDT time to prevent confusion due to time zone crossing. See the WBR2634 flight status page for this flight to view local times or setup timezone preferences in your user account.

Time Position Orientation Groundspeed Altitude Reporting Facility
EDT Latitude Longitude Course Direction KTS MPH feet Rate Location/Type
06:00PM 40.7689 -91.0769 73° East 138 159 2,300  Level Chicago Center
06:02PM 40.8485 -90.8058 72° East  Level FlightAware Approximate
06:02PM 40.7817 -91.0378 67° East 120 138 3,000  Level Chicago Center
06:03PM 40.8667 -90.7578 90° East  Level FlightAware Approximate
06:03PM 40.7983 -90.9878 66° East 122 140 3,700  Level Chicago Center
06:04PM 40.8778 -90.7053 72° East  Level FlightAware Approximate
06:04PM 40.8125 -90.9464 66° East 123 142 4,500  Level Chicago Center
06:05PM 40.8904 -90.6529 73° East  Level FlightAware Approximate
06:05PM 40.8267 -90.9061 65° Northeast 122 140 5,100  Level Chicago Center
06:06PM 40.9026 -90.6004 73° East  Level FlightAware Approximate
06:06PM 40.8425 -90.8658 63° Northeast 123 142 5,800  Level Chicago Center
06:07PM 40.8578 -90.8261 63° Northeast 123 142 6,400 540 Climbing Chicago Center
06:08PM 40.8711 -90.7839 67° East 123 142 7,000 540 Climbing Chicago Center
06:09PM 40.8906 -90.7342 63° Northeast 127 146 7,600 540 Climbing Chicago Center
06:10PM 40.9058 -90.6894 66° East 132 152 8,200 480 Climbing Chicago Center
06:11PM 40.9189 -90.6450 69° East 132 152 8,700 360 Climbing Chicago Center
06:12PM 40.9353 -90.6003 64° Northeast 134 154 9,000 120 Climbing Chicago Center
06:13PM 40.9522 -90.5497 66° East 146 168 9,000  Level Chicago Center
06:14PM 40.9719 -90.4997 62° Northeast 152 175 9,000  Level Chicago Center
06:15PM 40.9881 -90.4453 69° East 157 181 9,000  Level Chicago Center
06:16PM 41.0097 -90.3858 64° Northeast 152 175 9,000  Level Chicago Center
06:17PM 41.0264 -90.3369 66° East 149 171 9,000  Level Chicago Center
06:18PM 41.0461 -90.2881 62° Northeast 149 171 9,000  Level Chicago Center
06:19PM 41.0625 -90.2361 67° East 151 174 9,000  Level Chicago Center
06:20PM 41.0819 -90.1867 62° Northeast 151 174 9,000  Level Chicago Center
06:21PM 41.0997 -90.1364 65° Northeast 150 173 9,000  Level Chicago Center
06:22PM 41.1214 -90.0736 65° Northeast 154 177 9,000  Level Chicago Center
06:23PM 41.1414 -90.0228 62° Northeast 155 178 9,000 -60 Level Chicago Center
06:24PM 41.1575 -89.9700 68° East 154 177 8,900  Descending Chicago Center
06:25PM 41.1753 -89.9172 66° East 155 178 9,000  Climbing Chicago Center
06:26PM 41.1936 -89.8656 65° Northeast 155 178 9,000  Level Chicago Center
06:27PM 41.2111 -89.8133 66° East 155 178 9,000  Level Chicago Center
06:28PM 41.2292 -89.7608 65° Northeast 155 178 9,000 -60 Level Chicago Center
06:29PM 41.2494 -89.6975 67° East 156 180 8,900  Descending Chicago Center
06:30PM 41.2667 -89.6442 67° East 156 180 9,000  Climbing Chicago Center
06:32PM 41.2856 -89.5939 63° Northeast 153 176 9,000  Level Chicago Center
06:33PM 41.3039 -89.5414 65° Northeast 154 177 9,000  Level Chicago Center
06:34PM 41.3214 -89.4903 65° Northeast 152 175 9,000  Level Chicago Center
06:35PM 41.3400 -89.4389 64° Northeast 155 178 9,000  Level Chicago Center
06:36PM 41.3608 -89.3761 66° East 154 177 9,000 -60 Level Chicago Center
06:37PM 41.3781 -89.3239 66° East 154 177 8,900 -60 Descending Chicago Center
06:38PM 41.3953 -89.2706 67° East 156 180 8,900  Level Chicago Center
06:39PM 41.4122 -89.2175 67° East 156 180 8,900  Level Chicago Center
06:40PM 41.4289 -89.1681 66° East 150 173 8,900  Level Chicago Center
06:41PM 41.4472 -89.1175 64° Northeast 152 175 8,900  Level Chicago Center
06:42PM 41.4683 -89.0575 65° Northeast 151 174 9,000  Climbing Chicago Center
06:43PM 41.4869 -89.0092 63° Northeast 148 170 9,000  Level Chicago Center
06:44PM 41.5017 -88.9578 69° East 147 169 9,000 -240 Level Chicago Center
06:45PM 41.5186 -88.9047 67° East 155 178 8,600 -480 Descending Chicago Center
06:46PM 41.5356 -88.8506 67° East 157 181 8,100 -300 Descending Chicago Center
06:47PM 41.5581 -88.7875 64° Northeast 158 182 8,100  Level Chicago Center
06:48PM 41.5753 -88.7350 66° East 156 180 8,100  Level Chicago Center
06:49PM 41.5931 -88.6831 65° Northeast 156 180 8,100 -60 Level Chicago Center
06:50PM 41.6097 -88.6300 67° East 154 177 8,000 -60 Descending Chicago Center
06:51PM 41.6361 -88.5875 50° Northeast 151 174 8,000  Level Chicago Center
06:52PM 41.6525 -88.5267 70° East 148 170 8,100  Climbing Chicago Center
06:53PM 41.6547 -88.4706 87° East 150 173 8,000 -240 Descending Chicago Center
06:54PM 41.6631 -88.4167 78° East 149 171 7,700 -480 Descending Chicago Center
06:55PM 41.7008 -88.3875 30° Northeast 154 177 7,100 -360 Descending Chicago Center
06:56PM 41.7414 -88.3806 North 155 178 7,000 -60 Descending Chicago Center
06:57PM 41.7914 -88.3942 349° North 154 177 7,000  Level Chicago Center
06:58PM 41.8344 -88.4003 354° North 154 177 7,000  Level Chicago Center
06:59PM 41.8694 -88.3758 27° Northeast 153 176 7,100 -300 Climbing Chicago Center
07:00PM 41.9028 -88.3358 42° Northeast 165 190 6,400 -780 Descending Chicago Center
07:02PM 41.9283 -88.2792 59° Northeast 176 203 5,500 -780 Descending Chicago Center
07:03PM 41.9553 -88.2233 57° Northeast 179 206 4,900 -780 Descending Chicago Center
07:04PM 41.9675 -88.1450 78° East 181 208 4,000 -1,020 Descending Chicago Center
07:05PM 41.9683 -88.0828 89° East 176 203 2,900 -1,020 Descending Chicago Center
07:06PM 41.9686 -88.0278 90° East 164 189 2,000 -720 Descending Chicago Center
07:07PM 41.9681 -87.9700 91° East 156 180 1,500 -540 Descending Chicago Center
07:09PM 41.9667 -87.9000 76° East  Level FlightAware Approximate
07:16PM 41.9817 -87.9067 76° East  Level Estimated